RJSO(METAR)
05/26 20:00
METAR RJSO 261100Z 08004KT 050V140 9999 FEW030 13/08 Q1011 RMK
1CU030 A2988=
戻る
トップページへ戻る
IMOC Co,.Ltd.